createdAt,value
2019-05-19T00:02:18.810Z,13.80
2019-05-19T00:04:47.499Z,13.60
2019-05-19T00:07:16.368Z,13.60
2019-05-19T00:09:45.035Z,13.60
2019-05-19T00:12:13.764Z,13.70
2019-05-19T00:14:42.567Z,13.80
2019-05-19T00:17:11.351Z,13.70
2019-05-19T00:19:40.028Z,13.70
2019-05-19T00:22:08.754Z,13.70
2019-05-19T00:24:37.513Z,13.80
2019-05-19T00:27:06.162Z,13.70
2019-05-19T00:29:34.865Z,13.70
2019-05-19T00:32:03.680Z,13.70
2019-05-19T00:34:32.075Z,13.60
2019-05-19T00:37:00.527Z,13.70
2019-05-19T00:39:29.198Z,13.70
2019-05-19T00:41:57.909Z,13.80
2019-05-19T00:44:27.303Z,13.80
2019-05-19T00:46:56.043Z,13.80
2019-05-19T00:49:24.696Z,13.80
2019-05-19T00:51:53.130Z,13.80
2019-05-19T00:54:21.803Z,13.80
2019-05-19T00:56:51.079Z,13.70
2019-05-19T00:59:20.500Z,13.70
2019-05-19T01:01:49.351Z,13.70
2019-05-19T01:04:18.011Z,13.80
2019-05-19T01:06:46.655Z,13.70
2019-05-19T01:09:15.412Z,13.70
2019-05-19T01:11:44.076Z,13.70
2019-05-19T01:14:15.287Z,13.70
2019-05-19T01:16:43.272Z,13.80
2019-05-19T01:19:12.087Z,13.80
2019-05-19T01:21:41.469Z,13.80
2019-05-19T01:24:10.278Z,13.80
2019-05-19T01:26:39.030Z,13.80
2019-05-19T01:29:07.822Z,13.70
2019-05-19T01:31:36.317Z,13.80
2019-05-19T01:34:05.151Z,13.80
2019-05-19T01:36:34.016Z,13.80
2019-05-19T01:39:02.735Z,13.80
2019-05-19T01:41:32.414Z,13.70
2019-05-19T01:44:01.030Z,13.80
2019-05-19T01:46:31.814Z,13.70
2019-05-19T01:49:00.581Z,13.80
2019-05-19T01:51:29.315Z,13.90
2019-05-19T01:53:58.103Z,14.00
2019-05-19T01:56:26.627Z,13.90
2019-05-19T01:58:55.255Z,13.80
2019-05-19T02:01:24.120Z,14.30
2019-05-19T02:03:52.653Z,13.90
2019-05-19T02:06:21.467Z,13.90
2019-05-19T02:08:50.393Z,13.90
2019-05-19T02:11:19.033Z,13.80
2019-05-19T02:13:47.702Z,13.80
2019-05-19T02:16:16.266Z,13.70
2019-05-19T02:18:45.064Z,13.80
2019-05-19T02:21:13.773Z,13.80
2019-05-19T02:23:42.589Z,13.60
2019-05-19T02:26:11.033Z,13.70
2019-05-19T02:28:39.746Z,13.60
2019-05-19T02:31:08.367Z,13.60
2019-05-19T02:33:37.034Z,13.50
2019-05-19T02:36:05.956Z,13.60
2019-05-19T02:38:34.720Z,13.70
2019-05-19T02:41:05.606Z,13.70
2019-05-19T02:43:34.791Z,13.60
2019-05-19T02:46:04.486Z,13.70
2019-05-19T02:48:34.903Z,13.70
2019-05-19T02:51:05.650Z,13.70
2019-05-19T02:53:34.950Z,13.80
2019-05-19T02:56:05.582Z,13.70
2019-05-19T02:58:35.005Z,13.80
2019-05-19T03:01:03.531Z,13.80
2019-05-19T03:03:32.196Z,13.90
2019-05-19T03:06:00.961Z,13.80
2019-05-19T03:08:29.509Z,13.80
2019-05-19T03:10:58.128Z,13.80
2019-05-19T03:13:26.783Z,13.80
2019-05-19T03:15:55.191Z,13.70
2019-05-19T03:18:23.621Z,13.60
2019-05-19T03:21:08.138Z,13.60
2019-05-19T03:23:22.436Z,13.60
2019-05-19T03:25:51.033Z,13.60
2019-05-19T03:28:19.631Z,13.60
2019-05-19T03:31:10.537Z,13.60
2019-05-19T03:33:41.197Z,13.80
2019-05-19T03:36:09.907Z,13.80
2019-05-19T03:38:38.528Z,13.70
2019-05-19T03:41:07.231Z,13.70
2019-05-19T03:43:35.722Z,13.70
2019-05-19T03:46:04.348Z,13.50
2019-05-19T03:48:33.088Z,13.60
2019-05-19T03:51:02.748Z,13.60
2019-05-19T03:53:31.505Z,13.50
2019-05-19T03:56:00.343Z,13.50
2019-05-19T03:58:29.091Z,15.40
2019-05-19T04:00:57.629Z,13.60
2019-05-19T04:03:26.343Z,13.50
2019-05-19T04:05:54.910Z,13.70
2019-05-19T04:08:24.138Z,13.70
2019-05-19T04:10:52.823Z,13.70
2019-05-19T04:14:54.751Z,13.80
2019-05-19T04:18:54.776Z,13.70
2019-05-19T04:22:30.806Z,13.70
2019-05-19T04:25:13.753Z,13.70
2019-05-19T04:28:52.730Z,13.70
2019-05-19T04:31:38.534Z,13.70
2019-05-19T04:34:56.399Z,13.60
2019-05-19T04:38:51.245Z,13.70
2019-05-19T04:42:09.714Z,13.60
2019-05-19T04:45:44.728Z,13.80
2019-05-19T04:48:36.518Z,13.80
2019-05-19T04:52:07.099Z,13.90
2019-05-19T04:55:38.727Z,13.90
2019-05-19T04:58:13.710Z,13.80
2019-05-19T05:00:42.378Z,13.80
2019-05-19T05:03:11.331Z,13.80
2019-05-19T05:05:39.904Z,13.80
2019-05-19T05:08:24.879Z,13.80
2019-05-19T05:10:39.111Z,13.80
2019-05-19T05:13:07.912Z,13.80
2019-05-19T05:15:36.480Z,13.70
2019-05-19T05:18:05.872Z,13.70
2019-05-19T05:20:34.565Z,13.60
2019-05-19T05:23:03.044Z,13.70
2019-05-19T05:25:31.919Z,13.70
2019-05-19T05:28:00.603Z,13.70
2019-05-19T05:30:29.459Z,13.70
2019-05-19T05:32:57.995Z,13.80
2019-05-19T05:35:28.537Z,13.90
2019-05-19T05:37:57.134Z,13.90
2019-05-19T05:40:25.674Z,14.00
2019-05-19T05:42:54.368Z,13.90
2019-05-19T05:45:22.998Z,13.80
2019-05-19T05:47:51.414Z,13.90
2019-05-19T05:50:20.013Z,13.90
2019-05-19T05:52:49.459Z,13.90
2019-05-19T05:55:19.550Z,13.90
2019-05-19T05:57:48.539Z,14.00
2019-05-19T06:00:18.688Z,13.90
2019-05-19T06:02:47.516Z,13.90
2019-05-19T06:05:16.645Z,14.00
2019-05-19T06:07:45.386Z,14.00
2019-05-19T06:10:14.707Z,14.10
2019-05-19T06:12:43.369Z,14.10
2019-05-19T06:15:12.086Z,14.20
2019-05-19T06:17:41.076Z,14.20
2019-05-19T06:20:09.884Z,14.20
2019-05-19T06:22:54.556Z,14.20
2019-05-19T06:25:09.878Z,14.10
2019-05-19T06:27:39.312Z,14.00
2019-05-19T06:30:08.938Z,14.00
2019-05-19T06:32:46.461Z,14.10
2019-05-19T06:35:16.362Z,14.10
2019-05-19T06:37:44.938Z,14.20
2019-05-19T06:40:14.398Z,14.10
2019-05-19T06:42:43.373Z,14.10
2019-05-19T06:45:12.447Z,14.20
2019-05-19T06:47:41.135Z,14.10
2019-05-19T06:50:10.024Z,14.10
2019-05-19T06:52:42.085Z,14.10
2019-05-19T06:55:12.632Z,14.10
2019-05-19T06:57:42.396Z,14.10
2019-05-19T07:00:12.647Z,14.20
2019-05-19T07:02:42.300Z,14.10
2019-05-19T07:05:11.127Z,14.10
2019-05-19T07:07:39.624Z,14.20
2019-05-19T07:10:09.042Z,14.20
2019-05-19T07:12:37.729Z,14.20
2019-05-19T07:15:07.754Z,14.10
2019-05-19T07:17:36.587Z,14.20
2019-05-19T07:20:05.610Z,14.30
2019-05-19T07:22:37.649Z,14.20
2019-05-19T07:25:07.615Z,14.30
2019-05-19T07:27:36.232Z,14.30
2019-05-19T07:30:05.025Z,14.30
2019-05-19T07:32:33.907Z,14.30
2019-05-19T07:35:02.621Z,14.40
2019-05-19T07:37:31.428Z,14.30
2019-05-19T07:40:00.126Z,14.50
2019-05-19T07:42:28.920Z,14.60
2019-05-19T07:44:58.457Z,14.60
2019-05-19T07:47:27.177Z,14.70
2019-05-19T07:49:55.645Z,14.70
2019-05-19T07:52:24.227Z,14.80
2019-05-19T07:54:53.060Z,14.90
2019-05-19T07:57:22.853Z,14.80
2019-05-19T07:59:56.780Z,14.90
2019-05-19T08:02:50.718Z,14.90
2019-05-19T08:05:21.176Z,15.00
2019-05-19T08:07:49.891Z,14.90
2019-05-19T08:10:19.571Z,14.90
2019-05-19T08:12:48.249Z,14.80
2019-05-19T08:15:17.002Z,14.90
2019-05-19T08:17:45.707Z,15.00
2019-05-19T08:20:15.108Z,14.80
2019-05-19T08:22:43.698Z,14.80
2019-05-19T08:25:12.221Z,14.80
2019-05-19T08:27:40.930Z,14.90
2019-05-19T08:30:09.653Z,14.80
2019-05-19T08:32:38.325Z,14.80
2019-05-19T08:35:07.010Z,14.90
2019-05-19T08:37:35.832Z,15.00
2019-05-19T08:40:05.214Z,15.00
2019-05-19T08:42:33.932Z,15.30
2019-05-19T08:45:02.850Z,15.40
2019-05-19T08:47:31.623Z,15.50
2019-05-19T08:50:00.286Z,15.50
2019-05-19T08:52:29.074Z,15.70
2019-05-19T08:54:57.589Z,15.70
2019-05-19T08:57:26.242Z,15.70
2019-05-19T08:59:55.916Z,15.80
2019-05-19T09:02:24.730Z,15.90
2019-05-19T09:04:53.663Z,15.90
2019-05-19T09:07:22.413Z,15.90
2019-05-19T09:09:51.118Z,16.00
2019-05-19T09:12:19.860Z,16.20
2019-05-19T09:14:48.520Z,16.30
2019-05-19T09:17:19.584Z,16.40
2019-05-19T09:19:48.498Z,16.40
2019-05-19T09:22:17.252Z,16.50
2019-05-19T09:24:45.776Z,16.50
2019-05-19T09:27:14.376Z,16.40
2019-05-19T09:29:43.357Z,16.40
2019-05-19T09:32:11.988Z,16.30
2019-05-19T09:34:40.793Z,16.30
2019-05-19T09:37:09.429Z,16.30
2019-05-19T09:39:37.976Z,16.30
2019-05-19T09:42:06.728Z,16.30
2019-05-19T09:44:35.429Z,16.10
2019-05-19T09:47:04.184Z,16.00
2019-05-19T09:49:33.727Z,16.00
2019-05-19T09:52:03.686Z,15.90
2019-05-19T09:54:44.173Z,15.80
2019-05-19T09:57:03.060Z,15.70
2019-05-19T09:59:31.793Z,15.60
2019-05-19T10:02:01.354Z,15.60
2019-05-19T10:04:31.324Z,15.50
2019-05-19T10:07:01.053Z,15.40
2019-05-19T10:09:49.979Z,15.30
2019-05-19T10:12:18.678Z,15.30
2019-05-19T10:14:47.316Z,15.40
2019-05-19T10:17:16.043Z,15.40
2019-05-19T10:19:50.331Z,15.60
2019-05-19T10:22:19.636Z,15.50
2019-05-19T10:25:03.700Z,15.60
2019-05-19T10:27:21.596Z,15.60
2019-05-19T10:29:49.118Z,15.70
2019-05-19T10:32:17.845Z,15.60
2019-05-19T10:34:46.520Z,15.70
2019-05-19T10:37:15.101Z,15.80
2019-05-19T10:39:43.649Z,15.80
2019-05-19T10:42:12.533Z,15.90
2019-05-19T10:44:41.343Z,15.90
2019-05-19T10:47:09.892Z,16.00
2019-05-19T10:49:38.655Z,16.00
2019-05-19T10:52:07.242Z,16.00
2019-05-19T10:54:35.898Z,16.00
2019-05-19T10:57:04.544Z,16.00
2019-05-19T10:59:33.338Z,16.00
2019-05-19T11:02:03.246Z,16.00
2019-05-19T11:04:32.070Z,15.90
2019-05-19T11:07:00.772Z,16.00
2019-05-19T11:09:29.467Z,16.30
2019-05-19T11:11:58.154Z,16.30
2019-05-19T11:14:26.661Z,16.30
2019-05-19T11:16:55.435Z,16.10
2019-05-19T11:19:24.104Z,16.30
2019-05-19T11:21:52.669Z,16.20
2019-05-19T11:24:21.567Z,16.10
2019-05-19T11:26:50.317Z,16.00
2019-05-19T11:29:18.885Z,16.10
2019-05-19T11:31:47.482Z,16.00
2019-05-19T11:34:16.053Z,16.10
2019-05-19T11:36:44.731Z,16.20
2019-05-19T11:39:13.450Z,16.30
2019-05-19T11:41:42.038Z,16.40
2019-05-19T11:44:10.563Z,16.50
2019-05-19T11:46:39.171Z,16.30
2019-05-19T11:49:07.736Z,16.20
2019-05-19T11:51:36.408Z,16.30
2019-05-19T11:54:05.107Z,16.30
2019-05-19T11:56:33.660Z,16.30
2019-05-19T11:59:02.332Z,16.10
2019-05-19T12:01:30.961Z,16.00
2019-05-19T12:03:59.581Z,16.00
2019-05-19T12:06:38.777Z,15.90
2019-05-19T12:08:58.677Z,16.00
2019-05-19T12:11:27.396Z,16.10
2019-05-19T12:13:56.217Z,16.10
2019-05-19T12:16:24.843Z,16.20
2019-05-19T12:18:56.842Z,16.40
2019-05-19T12:21:24.078Z,16.40
2019-05-19T12:23:52.734Z,16.10
2019-05-19T12:26:23.495Z,16.20
2019-05-19T12:28:51.907Z,16.40
2019-05-19T12:31:20.675Z,16.40
2019-05-19T12:33:52.105Z,16.40
2019-05-19T12:36:19.940Z,16.50
2019-05-19T12:38:48.536Z,16.50
2019-05-19T12:41:16.934Z,16.40
2019-05-19T12:43:45.518Z,16.50
2019-05-19T12:46:16.671Z,16.50
2019-05-19T12:48:44.649Z,16.40
2019-05-19T12:51:13.306Z,16.40
2019-05-19T12:53:43.041Z,16.40
2019-05-19T12:56:15.264Z,16.40
2019-05-19T12:58:43.974Z,16.40
2019-05-19T13:01:12.534Z,16.40
2019-05-19T13:03:42.207Z,16.40
2019-05-19T13:06:10.945Z,16.50
2019-05-19T13:08:40.097Z,16.60
2019-05-19T13:11:10.229Z,16.50
2019-05-19T13:13:39.572Z,16.40
2019-05-19T13:16:08.302Z,16.40
2019-05-19T13:18:36.909Z,16.50
2019-05-19T13:21:05.439Z,16.60
2019-05-19T13:23:34.155Z,16.90
2019-05-19T13:26:02.727Z,16.80
2019-05-19T13:28:31.492Z,16.90
2019-05-19T13:31:00.182Z,17.00
2019-05-19T13:33:28.926Z,17.00
2019-05-19T13:35:57.524Z,16.90
2019-05-19T13:38:26.335Z,16.90
2019-05-19T13:40:55.046Z,16.90
2019-05-19T13:43:26.200Z,17.10
2019-05-19T13:45:54.078Z,17.00
2019-05-19T13:48:22.841Z,17.30
2019-05-19T13:50:51.448Z,17.40
2019-05-19T13:53:20.089Z,17.50
2019-05-19T13:55:55.769Z,17.80
2019-05-19T13:59:40.058Z,17.80
2019-05-19T14:03:04.104Z,17.70
2019-05-19T14:06:42.047Z,17.70
2019-05-19T14:10:31.268Z,17.60
2019-05-19T14:14:15.300Z,17.80
2019-05-19T14:17:52.110Z,17.60
2019-05-19T14:21:16.463Z,17.50
2019-05-19T14:25:03.570Z,17.30
2019-05-19T14:28:50.484Z,17.30
2019-05-19T14:32:19.725Z,17.30
2019-05-19T14:35:29.487Z,17.50
2019-05-19T14:38:45.447Z,17.50
2019-05-19T14:42:10.308Z,17.30
2019-05-19T14:45:36.026Z,17.20
2019-05-19T14:48:40.661Z,17.10
2019-05-19T14:51:46.866Z,17.40
2019-05-19T14:55:02.206Z,17.50
2019-05-19T14:58:44.203Z,17.40
2019-05-19T15:02:48.298Z,16.20
2019-05-19T15:10:03.725Z,17.00
2019-05-19T15:13:33.021Z,16.70
2019-05-19T15:17:25.877Z,16.90
2019-05-19T15:21:15.060Z,17.00
2019-05-19T15:24:02.421Z,17.10
2019-05-19T15:26:31.201Z,17.10
2019-05-19T15:29:01.234Z,16.90
2019-05-19T15:31:30.528Z,16.90
2019-05-19T15:34:00.062Z,17.00
2019-05-19T15:36:29.577Z,16.90
2019-05-19T15:39:00.879Z,16.90
2019-05-19T15:41:30.165Z,16.90
2019-05-19T15:44:00.435Z,16.90
2019-05-19T15:46:30.210Z,16.90
2019-05-19T15:49:01.743Z,16.90
2019-05-19T15:51:59.369Z,16.80
2019-05-19T15:54:14.050Z,16.10
2019-05-19T15:56:42.912Z,16.90
2019-05-19T15:59:11.645Z,16.90
2019-05-19T16:01:40.406Z,16.80
2019-05-19T16:04:09.164Z,16.90
2019-05-19T16:06:39.239Z,16.90
2019-05-19T16:09:08.383Z,16.90
2019-05-19T16:11:37.071Z,16.90
2019-05-19T16:14:05.918Z,16.90
2019-05-19T16:16:34.708Z,16.90
2019-05-19T16:19:03.350Z,16.90
2019-05-19T16:21:51.978Z,16.80
2019-05-19T16:24:22.139Z,16.80
2019-05-19T16:26:51.610Z,16.80
2019-05-19T16:29:22.966Z,16.80
2019-05-19T16:31:51.911Z,16.70
2019-05-19T16:34:20.731Z,16.60
2019-05-19T16:36:50.203Z,16.20
2019-05-19T16:39:20.059Z,15.80
2019-05-19T16:41:49.153Z,15.70
2019-05-19T16:44:18.499Z,15.60
2019-05-19T16:46:47.873Z,15.40
2019-05-19T16:49:16.887Z,15.40
2019-05-19T16:51:46.090Z,15.40
2019-05-19T16:54:37.196Z,15.40
2019-05-19T16:57:06.102Z,14.80
2019-05-19T16:59:34.992Z,15.60
2019-05-19T17:02:04.367Z,15.50
2019-05-19T17:04:33.561Z,15.60
2019-05-19T17:07:03.618Z,15.50
2019-05-19T17:09:32.469Z,15.50
2019-05-19T17:12:01.165Z,15.50
2019-05-19T17:14:30.091Z,15.50
2019-05-19T17:16:58.810Z,15.50
2019-05-19T17:19:27.284Z,15.30
2019-05-19T17:21:55.975Z,15.30
2019-05-19T17:24:24.542Z,15.40
2019-05-19T17:26:53.295Z,15.40
2019-05-19T17:29:22.131Z,15.40
2019-05-19T17:32:04.008Z,15.40
2019-05-19T17:34:21.427Z,15.30
2019-05-19T17:36:50.032Z,15.40
2019-05-19T17:39:18.592Z,15.30
2019-05-19T17:41:47.274Z,15.50
2019-05-19T17:44:15.966Z,15.40
2019-05-19T17:46:44.458Z,15.60
2019-05-19T17:49:13.081Z,15.40
2019-05-19T17:51:41.665Z,15.50
2019-05-19T17:54:10.410Z,15.40
2019-05-19T17:56:40.582Z,15.40
2019-05-19T17:59:16.454Z,15.30
2019-05-19T18:01:39.842Z,15.50
2019-05-19T18:04:08.741Z,15.50
2019-05-19T18:06:37.342Z,15.30
2019-05-19T18:09:07.151Z,15.50
2019-05-19T18:11:35.740Z,15.40
2019-05-19T18:14:04.491Z,15.30
2019-05-19T18:16:33.421Z,15.40
2019-05-19T18:19:02.021Z,15.50
2019-05-19T18:21:30.748Z,15.40
2019-05-19T18:23:59.412Z,15.50
2019-05-19T18:26:28.431Z,15.50
2019-05-19T18:28:59.814Z,15.30
2019-05-19T18:31:31.143Z,15.40
2019-05-19T18:33:59.015Z,15.40
2019-05-19T18:36:27.783Z,15.40
2019-05-19T18:38:56.641Z,15.40
2019-05-19T18:41:25.326Z,15.30
2019-05-19T18:43:54.005Z,15.30
2019-05-19T18:46:22.701Z,15.40
2019-05-19T18:48:51.148Z,15.30
2019-05-19T18:51:19.992Z,15.20
2019-05-19T18:53:48.776Z,15.10
2019-05-19T18:56:17.448Z,15.10
2019-05-19T18:58:46.231Z,15.10
2019-05-19T19:01:14.835Z,15.10
2019-05-19T19:03:43.639Z,15.10
2019-05-19T19:06:12.206Z,15.20
2019-05-19T19:08:40.950Z,15.20
2019-05-19T19:11:10.597Z,15.20
2019-05-19T19:13:39.192Z,15.40
2019-05-19T19:16:07.964Z,15.20
2019-05-19T19:18:36.685Z,15.00
2019-05-19T19:21:05.476Z,15.10
2019-05-19T19:23:33.903Z,15.00
2019-05-19T19:26:05.058Z,14.90
2019-05-19T19:28:33.849Z,15.10
2019-05-19T19:31:02.530Z,15.10
2019-05-19T19:33:33.721Z,15.10
2019-05-19T19:36:02.562Z,15.00
2019-05-19T19:38:32.390Z,15.10
2019-05-19T19:41:01.183Z,15.10
2019-05-19T19:43:30.322Z,15.00
2019-05-19T19:45:59.759Z,15.00
2019-05-19T19:48:28.929Z,14.90
2019-05-19T19:50:57.606Z,15.10
2019-05-19T19:53:26.827Z,15.00
2019-05-19T19:55:56.937Z,15.10
2019-05-19T19:58:25.438Z,15.00
2019-05-19T20:00:54.133Z,15.00
2019-05-19T20:03:22.930Z,15.10
2019-05-19T20:05:52.490Z,15.00
2019-05-19T20:08:21.412Z,15.00
2019-05-19T20:10:50.176Z,15.00
2019-05-19T20:13:18.916Z,14.90
2019-05-19T20:15:47.597Z,15.00
2019-05-19T20:18:16.845Z,15.00
2019-05-19T20:20:45.312Z,15.00
2019-05-19T20:23:13.963Z,15.00
2019-05-19T20:25:42.820Z,15.00
2019-05-19T20:28:11.627Z,15.00
2019-05-19T20:30:40.463Z,15.10
2019-05-19T20:33:09.269Z,15.00
2019-05-19T20:35:37.926Z,15.00
2019-05-19T20:38:06.652Z,15.00
2019-05-19T20:40:35.468Z,15.00
2019-05-19T20:43:04.199Z,15.00
2019-05-19T20:45:33.335Z,15.00
2019-05-19T20:48:02.070Z,15.00
2019-05-19T20:50:30.710Z,15.00
2019-05-19T20:53:00.216Z,15.00
2019-05-19T20:55:28.883Z,15.10
2019-05-19T20:57:57.462Z,14.90
2019-05-19T21:00:26.150Z,14.60
2019-05-19T21:02:54.852Z,14.50
2019-05-19T21:05:23.403Z,14.50
2019-05-19T21:08:32.110Z,14.50
2019-05-19T21:11:02.038Z,14.50
2019-05-19T21:13:31.516Z,14.50
2019-05-19T21:16:00.008Z,14.50
2019-05-19T21:18:28.624Z,14.60
2019-05-19T21:20:57.409Z,14.70
2019-05-19T21:23:26.082Z,14.60
2019-05-19T21:25:54.637Z,14.70
2019-05-19T21:28:23.202Z,14.70
2019-05-19T21:31:04.913Z,14.80
2019-05-19T21:33:23.144Z,14.80
2019-05-19T21:35:52.004Z,14.80
2019-05-19T21:38:20.693Z,14.90
2019-05-19T21:40:49.259Z,14.90
2019-05-19T21:43:18.069Z,15.00
2019-05-19T21:45:46.908Z,15.00
2019-05-19T21:48:17.537Z,15.00
2019-05-19T21:50:45.927Z,15.00
2019-05-19T21:53:14.574Z,15.00
2019-05-19T21:55:43.230Z,14.90
2019-05-19T21:58:12.131Z,14.90
2019-05-19T22:00:41.876Z,14.80
2019-05-19T22:03:10.555Z,14.80
2019-05-19T22:05:52.586Z,14.70
2019-05-19T22:08:13.003Z,14.70
2019-05-19T22:10:41.698Z,14.70
2019-05-19T22:13:10.314Z,14.70
2019-05-19T22:15:39.116Z,14.70
2019-05-19T22:18:07.772Z,14.70
2019-05-19T22:20:36.459Z,14.70
2019-05-19T22:23:05.091Z,14.70
2019-05-19T22:25:33.903Z,14.70
2019-05-19T22:28:02.582Z,14.50
2019-05-19T22:30:31.384Z,14.50
2019-05-19T22:32:59.971Z,14.50
2019-05-19T22:35:28.713Z,14.40
2019-05-19T22:37:57.343Z,14.40
2019-05-19T22:40:26.313Z,14.50
2019-05-19T22:42:55.050Z,14.60
2019-05-19T22:45:23.961Z,14.70
2019-05-19T22:47:52.616Z,14.70
2019-05-19T22:50:21.276Z,14.80
2019-05-19T22:52:50.104Z,14.60
2019-05-19T22:55:18.796Z,14.70
2019-05-19T22:57:47.357Z,14.80
2019-05-19T23:00:18.091Z,14.80
2019-05-19T23:02:46.897Z,14.80
2019-05-19T23:05:15.889Z,14.80
2019-05-19T23:07:44.440Z,14.80
2019-05-19T23:10:13.391Z,14.90
2019-05-19T23:12:42.095Z,14.90
2019-05-19T23:15:11.884Z,14.80
2019-05-19T23:17:40.648Z,14.80
2019-05-19T23:20:09.572Z,14.80
2019-05-19T23:22:38.441Z,14.80
2019-05-19T23:25:07.374Z,14.80
2019-05-19T23:27:36.100Z,14.80
2019-05-19T23:30:05.291Z,14.90
2019-05-19T23:32:33.939Z,14.80
2019-05-19T23:35:02.547Z,14.90
2019-05-19T23:37:31.029Z,15.00
2019-05-19T23:39:59.845Z,14.90
2019-05-19T23:42:28.579Z,14.90
2019-05-19T23:44:57.264Z,14.80
2019-05-19T23:47:25.887Z,14.80
2019-05-19T23:49:54.483Z,14.80
2019-05-19T23:52:23.093Z,14.70
2019-05-19T23:54:51.786Z,14.70
2019-05-19T23:57:20.351Z,14.80
2019-05-19T23:59:48.868Z,14.60
